sensor_id;sensor_type;location;lat;lon;timestamp;P1;durP1;ratioP1;P2;durP2;ratioP2
10801;SDS011;5453;50.852;7.102;2023-12-07T00:01:34;9.05;;;4.80;;
10801;SDS011;5453;50.852;7.102;2023-12-07T00:04:07;13.60;;;5.78;;
10801;SDS011;5453;50.852;7.102;2023-12-07T00:06:39;12.00;;;5.22;;
10801;SDS011;5453;50.852;7.102;2023-12-07T00:09:13;12.10;;;5.40;;
10801;SDS011;5453;50.852;7.102;2023-12-07T00:11:45;13.02;;;5.60;;
10801;SDS011;5453;50.852;7.102;2023-12-07T00:14:17;10.82;;;5.60;;
10801;SDS011;5453;50.852;7.102;2023-12-07T00:16:49;11.55;;;5.03;;
10801;SDS011;5453;50.852;7.102;2023-12-07T00:19:22;10.90;;;4.63;;
10801;SDS011;5453;50.852;7.102;2023-12-07T00:21:54;11.50;;;4.90;;
10801;SDS011;5453;50.852;7.102;2023-12-07T00:24:28;10.98;;;5.32;;
10801;SDS011;5453;50.852;7.102;2023-12-07T00:27:01;9.25;;;4.80;;
10801;SDS011;5453;50.852;7.102;2023-12-07T00:29:33;11.30;;;5.15;;
10801;SDS011;5453;50.852;7.102;2023-12-07T00:32:08;14.02;;;6.25;;
10801;SDS011;5453;50.852;7.102;2023-12-07T00:34:41;11.25;;;5.43;;
10801;SDS011;5453;50.852;7.102;2023-12-07T00:37:13;12.38;;;6.00;;
10801;SDS011;5453;50.852;7.102;2023-12-07T00:39:48;13.70;;;6.82;;
10801;SDS011;5453;50.852;7.102;2023-12-07T00:42:20;12.18;;;5.32;;
10801;SDS011;5453;50.852;7.102;2023-12-07T00:44:53;11.30;;;5.78;;
10801;SDS011;5453;50.852;7.102;2023-12-07T00:47:25;12.15;;;5.82;;
10801;SDS011;5453;50.852;7.102;2023-12-07T00:49:57;13.10;;;5.65;;
10801;SDS011;5453;50.852;7.102;2023-12-07T00:52:30;11.85;;;5.20;;
10801;SDS011;5453;50.852;7.102;2023-12-07T00:55:04;14.07;;;6.00;;
10801;SDS011;5453;50.852;7.102;2023-12-07T00:57:37;12.43;;;5.43;;
10801;SDS011;5453;50.852;7.102;2023-12-07T01:00:10;13.52;;;6.38;;
10801;SDS011;5453;50.852;7.102;2023-12-07T01:02:43;13.65;;;6.40;;
10801;SDS011;5453;50.852;7.102;2023-12-07T01:05:16;13.38;;;5.93;;
10801;SDS011;5453;50.852;7.102;2023-12-07T01:07:48;13.50;;;6.28;;
10801;SDS011;5453;50.852;7.102;2023-12-07T01:10:22;14.18;;;6.80;;
10801;SDS011;5453;50.852;7.102;2023-12-07T01:12:54;13.82;;;6.10;;
10801;SDS011;5453;50.852;7.102;2023-12-07T01:15:26;12.68;;;6.05;;
10801;SDS011;5453;50.852;7.102;2023-12-07T01:17:59;13.20;;;5.55;;
10801;SDS011;5453;50.852;7.102;2023-12-07T01:20:31;11.30;;;5.22;;
10801;SDS011;5453;50.852;7.102;2023-12-07T01:23:04;10.70;;;5.65;;
10801;SDS011;5453;50.852;7.102;2023-12-07T01:25:37;14.13;;;6.32;;
10801;SDS011;5453;50.852;7.102;2023-12-07T01:28:10;12.27;;;5.15;;
10801;SDS011;5453;50.852;7.102;2023-12-07T01:30:42;10.35;;;5.25;;
10801;SDS011;5453;50.852;7.102;2023-12-07T01:33:15;10.43;;;4.88;;
10801;SDS011;5453;50.852;7.102;2023-12-07T01:35:47;10.38;;;4.20;;
10801;SDS011;5453;50.852;7.102;2023-12-07T01:38:19;10.10;;;4.97;;
10801;SDS011;5453;50.852;7.102;2023-12-07T01:40:53;13.00;;;5.55;;
10801;SDS011;5453;50.852;7.102;2023-12-07T01:43:25;12.02;;;5.45;;
10801;SDS011;5453;50.852;7.102;2023-12-07T01:45:58;10.55;;;5.18;;
10801;SDS011;5453;50.852;7.102;2023-12-07T01:48:32;11.23;;;5.97;;
10801;SDS011;5453;50.852;7.102;2023-12-07T01:51:04;13.02;;;6.57;;
10801;SDS011;5453;50.852;7.102;2023-12-07T01:53:37;12.27;;;5.88;;
10801;SDS011;5453;50.852;7.102;2023-12-07T01:56:12;13.23;;;6.47;;
10801;SDS011;5453;50.852;7.102;2023-12-07T01:58:46;12.60;;;5.43;;
10801;SDS011;5453;50.852;7.102;2023-12-07T02:01:18;12.85;;;5.80;;
10801;SDS011;5453;50.852;7.102;2023-12-07T02:03:51;12.13;;;5.45;;
10801;SDS011;5453;50.852;7.102;2023-12-07T02:06:23;11.77;;;5.18;;
10801;SDS011;5453;50.852;7.102;2023-12-07T02:08:56;10.98;;;4.95;;
10801;SDS011;5453;50.852;7.102;2023-12-07T02:11:30;10.38;;;5.07;;
10801;SDS011;5453;50.852;7.102;2023-12-07T02:14:02;10.82;;;5.10;;
10801;SDS011;5453;50.852;7.102;2023-12-07T02:16:35;12.90;;;5.82;;
10801;SDS011;5453;50.852;7.102;2023-12-07T02:19:16;10.13;;;5.18;;
10801;SDS011;5453;50.852;7.102;2023-12-07T02:22:21;10.77;;;5.50;;
10801;SDS011;5453;50.852;7.102;2023-12-07T02:25:03;12.90;;;5.32;;
10801;SDS011;5453;50.852;7.102;2023-12-07T02:27:40;11.77;;;4.90;;
10801;SDS011;5453;50.852;7.102;2023-12-07T02:30:16;11.40;;;5.00;;
10801;SDS011;5453;50.852;7.102;2023-12-07T02:32:48;11.95;;;5.60;;
10801;SDS011;5453;50.852;7.102;2023-12-07T02:35:21;10.70;;;4.93;;
10801;SDS011;5453;50.852;7.102;2023-12-07T02:37:54;11.90;;;5.13;;
10801;SDS011;5453;50.852;7.102;2023-12-07T02:40:27;10.88;;;5.50;;
10801;SDS011;5453;50.852;7.102;2023-12-07T02:43:01;11.50;;;5.75;;
10801;SDS011;5453;50.852;7.102;2023-12-07T02:45:35;12.43;;;4.97;;
10801;SDS011;5453;50.852;7.102;2023-12-07T02:48:08;10.60;;;4.70;;
10801;SDS011;5453;50.852;7.102;2023-12-07T02:50:40;9.90;;;5.25;;
10801;SDS011;5453;50.852;7.102;2023-12-07T02:53:13;10.88;;;4.90;;
10801;SDS011;5453;50.852;7.102;2023-12-07T02:55:45;11.68;;;5.50;;
10801;SDS011;5453;50.852;7.102;2023-12-07T02:58:19;10.38;;;5.07;;
10801;SDS011;5453;50.852;7.102;2023-12-07T03:00:51;13.02;;;5.68;;
10801;SDS011;5453;50.852;7.102;2023-12-07T03:03:23;11.35;;;4.93;;
10801;SDS011;5453;50.852;7.102;2023-12-07T03:05:56;12.40;;;5.57;;
10801;SDS011;5453;50.852;7.102;2023-12-07T03:08:28;9.63;;;4.45;;
10801;SDS011;5453;50.852;7.102;2023-12-07T03:11:01;11.60;;;5.32;;
10801;SDS011;5453;50.852;7.102;2023-12-07T03:13:34;10.35;;;4.78;;
10801;SDS011;5453;50.852;7.102;2023-12-07T03:16:07;11.50;;;5.05;;
10801;SDS011;5453;50.852;7.102;2023-12-07T03:18:40;12.18;;;5.43;;
10801;SDS011;5453;50.852;7.102;2023-12-07T03:21:13;14.68;;;6.38;;
10801;SDS011;5453;50.852;7.102;2023-12-07T03:23:45;12.95;;;5.65;;
10801;SDS011;5453;50.852;7.102;2023-12-07T03:26:17;12.32;;;5.70;;
10801;SDS011;5453;50.852;7.102;2023-12-07T03:28:51;13.93;;;5.85;;
10801;SDS011;5453;50.852;7.102;2023-12-07T03:31:24;14.20;;;5.95;;
10801;SDS011;5453;50.852;7.102;2023-12-07T03:33:56;12.32;;;5.53;;
10801;SDS011;5453;50.852;7.102;2023-12-07T03:36:29;13.98;;;6.55;;
10801;SDS011;5453;50.852;7.102;2023-12-07T03:39:01;14.90;;;6.70;;
10801;SDS011;5453;50.852;7.102;2023-12-07T03:41:35;13.85;;;6.68;;
10801;SDS011;5453;50.852;7.102;2023-12-07T03:44:08;13.55;;;6.28;;
10801;SDS011;5453;50.852;7.102;2023-12-07T03:46:41;16.20;;;7.30;;
10801;SDS011;5453;50.852;7.102;2023-12-07T03:49:13;15.00;;;6.95;;
10801;SDS011;5453;50.852;7.102;2023-12-07T03:51:45;14.15;;;6.53;;
10801;SDS011;5453;50.852;7.102;2023-12-07T03:54:18;15.38;;;6.88;;
10801;SDS011;5453;50.852;7.102;2023-12-07T03:56:50;14.88;;;6.78;;
10801;SDS011;5453;50.852;7.102;2023-12-07T03:59:24;15.40;;;7.68;;
10801;SDS011;5453;50.852;7.102;2023-12-07T04:01:56;15.77;;;7.45;;
10801;SDS011;5453;50.852;7.102;2023-12-07T04:04:29;13.82;;;6.55;;
10801;SDS011;5453;50.852;7.102;2023-12-07T04:07:01;11.35;;;5.97;;
10801;SDS011;5453;50.852;7.102;2023-12-07T04:09:33;13.05;;;6.88;;
10801;SDS011;5453;50.852;7.102;2023-12-07T04:12:06;15.00;;;6.30;;
10801;SDS011;5453;50.852;7.102;2023-12-07T04:14:40;13.18;;;6.05;;
10801;SDS011;5453;50.852;7.102;2023-12-07T04:17:12;12.02;;;5.05;;
10801;SDS011;5453;50.852;7.102;2023-12-07T04:19:45;12.93;;;5.95;;
10801;SDS011;5453;50.852;7.102;2023-12-07T04:22:17;11.85;;;5.85;;
10801;SDS011;5453;50.852;7.102;2023-12-07T04:24:49;10.70;;;4.93;;
10801;SDS011;5453;50.852;7.102;2023-12-07T04:27:22;11.25;;;5.25;;
10801;SDS011;5453;50.852;7.102;2023-12-07T04:29:55;13.05;;;5.55;;
10801;SDS011;5453;50.852;7.102;2023-12-07T04:32:28;16.33;;;5.93;;
10801;SDS011;5453;50.852;7.102;2023-12-07T04:35:00;12.10;;;5.35;;
10801;SDS011;5453;50.852;7.102;2023-12-07T04:37:33;12.25;;;5.28;;
10801;SDS011;5453;50.852;7.102;2023-12-07T04:40:05;9.27;;;4.55;;
10801;SDS011;5453;50.852;7.102;2023-12-07T04:42:40;11.95;;;5.75;;
10801;SDS011;5453;50.852;7.102;2023-12-07T04:45:14;10.90;;;4.88;;
10801;SDS011;5453;50.852;7.102;2023-12-07T04:47:47;9.15;;;4.85;;
10801;SDS011;5453;50.852;7.102;2023-12-07T04:50:19;10.90;;;4.93;;
10801;SDS011;5453;50.852;7.102;2023-12-07T04:52:52;10.23;;;4.53;;
10801;SDS011;5453;50.852;7.102;2023-12-07T04:55:25;10.18;;;4.60;;
10801;SDS011;5453;50.852;7.102;2023-12-07T04:57:57;8.30;;;4.38;;
10801;SDS011;5453;50.852;7.102;2023-12-07T05:00:31;10.27;;;4.43;;
10801;SDS011;5453;50.852;7.102;2023-12-07T05:03:03;8.27;;;4.18;;
10801;SDS011;5453;50.852;7.102;2023-12-07T05:05:35;8.77;;;4.20;;
10801;SDS011;5453;50.852;7.102;2023-12-07T05:08:08;7.43;;;3.75;;
10801;SDS011;5453;50.852;7.102;2023-12-07T05:10:40;9.93;;;4.05;;
10801;SDS011;5453;50.852;7.102;2023-12-07T05:13:13;7.50;;;3.80;;
10801;SDS011;5453;50.852;7.102;2023-12-07T05:15:47;7.65;;;4.10;;
10801;SDS011;5453;50.852;7.102;2023-12-07T05:18:19;7.55;;;4.03;;
10801;SDS011;5453;50.852;7.102;2023-12-07T05:20:51;6.65;;;3.78;;
10801;SDS011;5453;50.852;7.102;2023-12-07T05:23:24;7.97;;;4.32;;
10801;SDS011;5453;50.852;7.102;2023-12-07T05:25:56;7.95;;;3.83;;
10801;SDS011;5453;50.852;7.102;2023-12-07T05:28:28;10.13;;;4.07;;
10801;SDS011;5453;50.852;7.102;2023-12-07T05:31:02;6.05;;;3.25;;
10801;SDS011;5453;50.852;7.102;2023-12-07T05:33:35;7.00;;;3.65;;
10801;SDS011;5453;50.852;7.102;2023-12-07T05:36:08;6.35;;;3.55;;
10801;SDS011;5453;50.852;7.102;2023-12-07T05:38:40;8.07;;;4.22;;
10801;SDS011;5453;50.852;7.102;2023-12-07T05:41:13;5.97;;;3.72;;
10801;SDS011;5453;50.852;7.102;2023-12-07T05:43:45;8.75;;;4.35;;
10801;SDS011;5453;50.852;7.102;2023-12-07T05:46:20;8.20;;;4.22;;
10801;SDS011;5453;50.852;7.102;2023-12-07T05:48:52;9.35;;;4.57;;
10801;SDS011;5453;50.852;7.102;2023-12-07T05:51:24;7.70;;;4.00;;
10801;SDS011;5453;50.852;7.102;2023-12-07T05:53:57;9.95;;;4.55;;
10801;SDS011;5453;50.852;7.102;2023-12-07T05:56:30;10.15;;;5.22;;
10801;SDS011;5453;50.852;7.102;2023-12-07T05:59:02;9.25;;;4.32;;
10801;SDS011;5453;50.852;7.102;2023-12-07T06:01:36;8.70;;;4.40;;
10801;SDS011;5453;50.852;7.102;2023-12-07T06:04:08;10.13;;;4.57;;
10801;SDS011;5453;50.852;7.102;2023-12-07T06:06:42;9.45;;;5.00;;
10801;SDS011;5453;50.852;7.102;2023-12-07T06:09:14;9.52;;;5.30;;
10801;SDS011;5453;50.852;7.102;2023-12-07T06:11:47;11.77;;;5.10;;
10801;SDS011;5453;50.852;7.102;2023-12-07T06:14:19;13.60;;;5.95;;
10801;SDS011;5453;50.852;7.102;2023-12-07T06:16:54;11.70;;;5.60;;
10801;SDS011;5453;50.852;7.102;2023-12-07T06:19:27;11.88;;;5.47;;
10801;SDS011;5453;50.852;7.102;2023-12-07T06:21:59;14.70;;;6.45;;
10801;SDS011;5453;50.852;7.102;2023-12-07T06:24:32;11.95;;;5.38;;
10801;SDS011;5453;50.852;7.102;2023-12-07T06:27:04;12.65;;;6.30;;
10801;SDS011;5453;50.852;7.102;2023-12-07T06:29:37;15.70;;;6.68;;
10801;SDS011;5453;50.852;7.102;2023-12-07T06:32:11;12.60;;;6.57;;
10801;SDS011;5453;50.852;7.102;2023-12-07T06:34:43;13.48;;;7.00;;
10801;SDS011;5453;50.852;7.102;2023-12-07T06:37:15;14.32;;;7.03;;
10801;SDS011;5453;50.852;7.102;2023-12-07T06:39:50;16.05;;;7.03;;
10801;SDS011;5453;50.852;7.102;2023-12-07T06:42:22;14.63;;;6.68;;
10801;SDS011;5453;50.852;7.102;2023-12-07T06:44:55;13.40;;;6.72;;
10801;SDS011;5453;50.852;7.102;2023-12-07T06:47:28;11.82;;;6.63;;
10801;SDS011;5453;50.852;7.102;2023-12-07T06:50:01;14.60;;;7.32;;
10801;SDS011;5453;50.852;7.102;2023-12-07T06:52:34;13.57;;;6.35;;
10801;SDS011;5453;50.852;7.102;2023-12-07T06:55:07;15.05;;;6.68;;
10801;SDS011;5453;50.852;7.102;2023-12-07T06:57:40;14.70;;;7.20;;
10801;SDS011;5453;50.852;7.102;2023-12-07T07:00:13;15.90;;;7.20;;
10801;SDS011;5453;50.852;7.102;2023-12-07T07:02:49;16.33;;;7.10;;
10801;SDS011;5453;50.852;7.102;2023-12-07T07:05:21;15.88;;;6.68;;
10801;SDS011;5453;50.852;7.102;2023-12-07T07:07:53;13.07;;;6.20;;
10801;SDS011;5453;50.852;7.102;2023-12-07T07:10:26;13.88;;;6.75;;
10801;SDS011;5453;50.852;7.102;2023-12-07T07:12:59;12.43;;;6.55;;
10801;SDS011;5453;50.852;7.102;2023-12-07T07:15:33;14.85;;;7.03;;
10801;SDS011;5453;50.852;7.102;2023-12-07T07:18:07;13.85;;;6.30;;
10801;SDS011;5453;50.852;7.102;2023-12-07T07:20:39;13.25;;;6.35;;
10801;SDS011;5453;50.852;7.102;2023-12-07T07:23:12;15.25;;;6.90;;
10801;SDS011;5453;50.852;7.102;2023-12-07T07:25:45;15.15;;;7.05;;
10801;SDS011;5453;50.852;7.102;2023-12-07T07:28:18;16.05;;;7.00;;
10801;SDS011;5453;50.852;7.102;2023-12-07T07:30:50;14.75;;;7.10;;
10801;SDS011;5453;50.852;7.102;2023-12-07T07:33:25;14.85;;;6.82;;
10801;SDS011;5453;50.852;7.102;2023-12-07T07:35:57;12.93;;;6.50;;
10801;SDS011;5453;50.852;7.102;2023-12-07T07:38:29;14.48;;;6.45;;
10801;SDS011;5453;50.852;7.102;2023-12-07T07:41:02;14.05;;;6.93;;
10801;SDS011;5453;50.852;7.102;2023-12-07T07:43:34;15.75;;;7.00;;
10801;SDS011;5453;50.852;7.102;2023-12-07T07:46:07;13.55;;;6.88;;
10801;SDS011;5453;50.852;7.102;2023-12-07T07:48:41;15.85;;;6.95;;
10801;SDS011;5453;50.852;7.102;2023-12-07T07:51:13;15.32;;;7.05;;
10801;SDS011;5453;50.852;7.102;2023-12-07T07:53:46;14.52;;;6.47;;
10801;SDS011;5453;50.852;7.102;2023-12-07T07:56:18;14.93;;;6.28;;
10801;SDS011;5453;50.852;7.102;2023-12-07T07:58:50;14.98;;;6.90;;
10801;SDS011;5453;50.852;7.102;2023-12-07T08:01:23;14.70;;;7.03;;
10801;SDS011;5453;50.852;7.102;2023-12-07T08:03:57;13.55;;;6.07;;
10801;SDS011;5453;50.852;7.102;2023-12-07T08:06:29;13.02;;;5.85;;
10801;SDS011;5453;50.852;7.102;2023-12-07T08:09:02;13.43;;;5.35;;
10801;SDS011;5453;50.852;7.102;2023-12-07T08:11:34;15.73;;;6.95;;
10801;SDS011;5453;50.852;7.102;2023-12-07T08:14:07;14.43;;;6.47;;
10801;SDS011;5453;50.852;7.102;2023-12-07T08:16:42;13.80;;;6.63;;
10801;SDS011;5453;50.852;7.102;2023-12-07T08:19:18;13.68;;;6.13;;
10801;SDS011;5453;50.852;7.102;2023-12-07T08:21:50;17.70;;;6.93;;
10801;SDS011;5453;50.852;7.102;2023-12-07T08:24:23;16.85;;;6.78;;
10801;SDS011;5453;50.852;7.102;2023-12-07T08:26:55;15.15;;;5.88;;
10801;SDS011;5453;50.852;7.102;2023-12-07T08:29:28;14.88;;;6.10;;
10801;SDS011;5453;50.852;7.102;2023-12-07T08:32:00;14.85;;;6.95;;
10801;SDS011;5453;50.852;7.102;2023-12-07T08:34:34;8.70;;;2.92;;
10801;SDS011;5453;50.852;7.102;2023-12-07T08:37:07;14.57;;;6.07;;
10801;SDS011;5453;50.852;7.102;2023-12-07T08:39:40;16.10;;;7.05;;
10801;SDS011;5453;50.852;7.102;2023-12-07T08:42:12;16.00;;;6.50;;
10801;SDS011;5453;50.852;7.102;2023-12-07T08:44:44;12.93;;;5.85;;
10801;SDS011;5453;50.852;7.102;2023-12-07T08:47:17;14.05;;;6.88;;
10801;SDS011;5453;50.852;7.102;2023-12-07T08:49:50;16.73;;;6.40;;
10801;SDS011;5453;50.852;7.102;2023-12-07T08:52:23;21.17;;;8.57;;
10801;SDS011;5453;50.852;7.102;2023-12-07T08:54:55;20.67;;;8.70;;
10801;SDS011;5453;50.852;7.102;2023-12-07T08:57:28;19.88;;;8.65;;
10801;SDS011;5453;50.852;7.102;2023-12-07T09:00:00;22.50;;;9.90;;
10801;SDS011;5453;50.852;7.102;2023-12-07T09:02:32;19.05;;;9.20;;
10801;SDS011;5453;50.852;7.102;2023-12-07T09:05:06;21.27;;;9.30;;
10801;SDS011;5453;50.852;7.102;2023-12-07T09:07:40;18.65;;;8.45;;
10801;SDS011;5453;50.852;7.102;2023-12-07T09:10:12;18.52;;;7.82;;
10801;SDS011;5453;50.852;7.102;2023-12-07T09:12:45;16.92;;;7.68;;
10801;SDS011;5453;50.852;7.102;2023-12-07T09:15:17;21.27;;;9.38;;
10801;SDS011;5453;50.852;7.102;2023-12-07T09:17:50;24.17;;;9.85;;
10801;SDS011;5453;50.852;7.102;2023-12-07T09:20:23;22.05;;;9.30;;
10801;SDS011;5453;50.852;7.102;2023-12-07T09:22:56;22.83;;;9.07;;
10801;SDS011;5453;50.852;7.102;2023-12-07T09:25:28;18.42;;;8.07;;
10801;SDS011;5453;50.852;7.102;2023-12-07T09:28:01;20.10;;;8.68;;
10801;SDS011;5453;50.852;7.102;2023-12-07T09:30:33;20.27;;;8.57;;
10801;SDS011;5453;50.852;7.102;2023-12-07T09:33:06;21.95;;;7.88;;
10801;SDS011;5453;50.852;7.102;2023-12-07T09:35:40;18.83;;;8.43;;
10801;SDS011;5453;50.852;7.102;2023-12-07T09:38:12;17.63;;;7.90;;
10801;SDS011;5453;50.852;7.102;2023-12-07T09:40:45;22.88;;;9.23;;
10801;SDS011;5453;50.852;7.102;2023-12-07T09:43:18;16.65;;;6.78;;
10801;SDS011;5453;50.852;7.102;2023-12-07T09:45:50;22.63;;;9.57;;
10801;SDS011;5453;50.852;7.102;2023-12-07T09:48:25;16.92;;;7.85;;
10801;SDS011;5453;50.852;7.102;2023-12-07T09:51:00;21.02;;;8.80;;
10801;SDS011;5453;50.852;7.102;2023-12-07T09:53:33;17.15;;;8.25;;
10801;SDS011;5453;50.852;7.102;2023-12-07T09:56:07;20.83;;;8.80;;
10801;SDS011;5453;50.852;7.102;2023-12-07T09:58:41;20.33;;;8.88;;
10801;SDS011;5453;50.852;7.102;2023-12-07T10:01:13;18.70;;;7.50;;
10801;SDS011;5453;50.852;7.102;2023-12-07T10:03:45;20.88;;;8.60;;
10801;SDS011;5453;50.852;7.102;2023-12-07T10:06:19;21.35;;;8.38;;
10801;SDS011;5453;50.852;7.102;2023-12-07T10:08:53;19.15;;;8.15;;
10801;SDS011;5453;50.852;7.102;2023-12-07T10:11:36;17.23;;;8.02;;
10801;SDS011;5453;50.852;7.102;2023-12-07T10:14:08;19.05;;;8.57;;
10801;SDS011;5453;50.852;7.102;2023-12-07T10:16:51;15.05;;;7.25;;
10801;SDS011;5453;50.852;7.102;2023-12-07T10:19:25;14.63;;;7.13;;
10801;SDS011;5453;50.852;7.102;2023-12-07T10:21:59;19.67;;;7.38;;
10801;SDS011;5453;50.852;7.102;2023-12-07T10:24:32;21.70;;;8.00;;
10801;SDS011;5453;50.852;7.102;2023-12-07T10:27:05;17.48;;;6.93;;
10801;SDS011;5453;50.852;7.102;2023-12-07T10:29:37;16.13;;;7.32;;
10801;SDS011;5453;50.852;7.102;2023-12-07T10:32:10;14.50;;;6.82;;
10801;SDS011;5453;50.852;7.102;2023-12-07T10:34:42;18.48;;;8.15;;
10801;SDS011;5453;50.852;7.102;2023-12-07T10:37:17;15.05;;;7.57;;
10801;SDS011;5453;50.852;7.102;2023-12-07T10:39:50;14.27;;;6.55;;
10801;SDS011;5453;50.852;7.102;2023-12-07T10:42:23;16.33;;;7.40;;
10801;SDS011;5453;50.852;7.102;2023-12-07T10:44:56;15.68;;;7.13;;
10801;SDS011;5453;50.852;7.102;2023-12-07T10:47:35;17.27;;;6.90;;
10801;SDS011;5453;50.852;7.102;2023-12-07T10:50:09;14.20;;;6.47;;
10801;SDS011;5453;50.852;7.102;2023-12-07T10:52:45;13.63;;;6.07;;
10801;SDS011;5453;50.852;7.102;2023-12-07T10:55:28;14.98;;;6.93;;
10801;SDS011;5453;50.852;7.102;2023-12-07T10:58:01;15.98;;;6.55;;
10801;SDS011;5453;50.852;7.102;2023-12-07T11:00:35;12.98;;;5.72;;
10801;SDS011;5453;50.852;7.102;2023-12-07T11:03:08;15.15;;;6.78;;
10801;SDS011;5453;50.852;7.102;2023-12-07T11:05:41;13.82;;;6.55;;
10801;SDS011;5453;50.852;7.102;2023-12-07T11:08:17;13.43;;;6.28;;
10801;SDS011;5453;50.852;7.102;2023-12-07T11:10:59;13.98;;;6.47;;
10801;SDS011;5453;50.852;7.102;2023-12-07T11:13:36;12.82;;;6.35;;
10801;SDS011;5453;50.852;7.102;2023-12-07T11:16:09;13.77;;;6.78;;
10801;SDS011;5453;50.852;7.102;2023-12-07T11:18:42;17.95;;;7.07;;
10801;SDS011;5453;50.852;7.102;2023-12-07T11:21:14;12.68;;;5.97;;
10801;SDS011;5453;50.852;7.102;2023-12-07T11:23:48;11.73;;;6.05;;
10801;SDS011;5453;50.852;7.102;2023-12-07T11:26:21;11.27;;;5.72;;
10801;SDS011;5453;50.852;7.102;2023-12-07T11:28:55;14.95;;;6.57;;
10801;SDS011;5453;50.852;7.102;2023-12-07T11:31:27;15.57;;;7.05;;
10801;SDS011;5453;50.852;7.102;2023-12-07T11:34:02;13.48;;;6.07;;
10801;SDS011;5453;50.852;7.102;2023-12-07T11:36:38;12.30;;;5.90;;
10801;SDS011;5453;50.852;7.102;2023-12-07T11:39:18;16.92;;;6.65;;
10801;SDS011;5453;50.852;7.102;2023-12-07T11:41:53;15.23;;;6.72;;
10801;SDS011;5453;50.852;7.102;2023-12-07T11:44:32;14.10;;;7.32;;
10801;SDS011;5453;50.852;7.102;2023-12-07T11:47:07;13.18;;;6.10;;
10801;SDS011;5453;50.852;7.102;2023-12-07T11:49:40;13.23;;;6.25;;
10801;SDS011;5453;50.852;7.102;2023-12-07T11:52:13;13.68;;;6.18;;
10801;SDS011;5453;50.852;7.102;2023-12-07T11:54:49;10.07;;;5.25;;
10801;SDS011;5453;50.852;7.102;2023-12-07T11:59:54;10.95;;;5.20;;
10801;SDS011;5453;50.852;7.102;2023-12-07T12:02:26;11.70;;;5.30;;
10801;SDS011;5453;50.852;7.102;2023-12-07T12:04:58;12.40;;;5.25;;
10801;SDS011;5453;50.852;7.102;2023-12-07T12:07:31;13.55;;;5.53;;
10801;SDS011;5453;50.852;7.102;2023-12-07T12:10:05;10.35;;;5.63;;
10801;SDS011;5453;50.852;7.102;2023-12-07T12:12:39;11.63;;;4.95;;
10801;SDS011;5453;50.852;7.102;2023-12-07T12:15:11;9.43;;;5.10;;
10801;SDS011;5453;50.852;7.102;2023-12-07T12:17:44;10.38;;;4.97;;
10801;SDS011;5453;50.852;7.102;2023-12-07T12:20:16;11.20;;;4.80;;
10801;SDS011;5453;50.852;7.102;2023-12-07T12:22:49;8.35;;;4.78;;
10801;SDS011;5453;50.852;7.102;2023-12-07T12:25:25;9.75;;;4.50;;
10801;SDS011;5453;50.852;7.102;2023-12-07T12:28:01;9.70;;;4.90;;
10801;SDS011;5453;50.852;7.102;2023-12-07T12:30:35;7.97;;;4.32;;
10801;SDS011;5453;50.852;7.102;2023-12-07T12:33:07;9.20;;;4.63;;
10801;SDS011;5453;50.852;7.102;2023-12-07T12:35:40;10.15;;;4.22;;
10801;SDS011;5453;50.852;7.102;2023-12-07T12:38:12;9.32;;;4.30;;
10801;SDS011;5453;50.852;7.102;2023-12-07T12:40:47;8.73;;;4.43;;
10801;SDS011;5453;50.852;7.102;2023-12-07T12:43:22;9.65;;;4.20;;
10801;SDS011;5453;50.852;7.102;2023-12-07T12:45:55;9.77;;;4.13;;
10801;SDS011;5453;50.852;7.102;2023-12-07T12:48:29;10.52;;;4.55;;
10801;SDS011;5453;50.852;7.102;2023-12-07T12:51:07;11.05;;;4.25;;
10801;SDS011;5453;50.852;7.102;2023-12-07T12:53:41;7.80;;;4.10;;
10801;SDS011;5453;50.852;7.102;2023-12-07T12:56:18;10.52;;;5.15;;
10801;SDS011;5453;50.852;7.102;2023-12-07T12:58:52;11.30;;;5.03;;
10801;SDS011;5453;50.852;7.102;2023-12-07T13:01:26;7.72;;;4.10;;
10801;SDS011;5453;50.852;7.102;2023-12-07T13:03:58;11.07;;;4.75;;
10801;SDS011;5453;50.852;7.102;2023-12-07T13:06:30;11.55;;;5.22;;
10801;SDS011;5453;50.852;7.102;2023-12-07T13:09:03;11.27;;;5.00;;
10801;SDS011;5453;50.852;7.102;2023-12-07T13:11:37;10.23;;;5.60;;
10801;SDS011;5453;50.852;7.102;2023-12-07T13:14:09;11.80;;;4.97;;
10801;SDS011;5453;50.852;7.102;2023-12-07T13:16:41;9.57;;;4.57;;
10801;SDS011;5453;50.852;7.102;2023-12-07T13:19:14;11.25;;;5.35;;
10801;SDS011;5453;50.852;7.102;2023-12-07T13:21:46;10.63;;;5.03;;
10801;SDS011;5453;50.852;7.102;2023-12-07T13:24:18;10.48;;;5.15;;
10801;SDS011;5453;50.852;7.102;2023-12-07T13:26:52;11.02;;;5.43;;
10801;SDS011;5453;50.852;7.102;2023-12-07T13:29:25;11.93;;;4.72;;
10801;SDS011;5453;50.852;7.102;2023-12-07T13:31:57;10.63;;;4.65;;
10801;SDS011;5453;50.852;7.102;2023-12-07T13:34:29;13.38;;;5.57;;
10801;SDS011;5453;50.852;7.102;2023-12-07T13:37:02;9.95;;;4.10;;
10801;SDS011;5453;50.852;7.102;2023-12-07T13:39:35;8.32;;;4.63;;
10801;SDS011;5453;50.852;7.102;2023-12-07T13:42:09;8.75;;;4.47;;
10801;SDS011;5453;50.852;7.102;2023-12-07T13:44:42;9.20;;;4.28;;
10801;SDS011;5453;50.852;7.102;2023-12-07T13:47:17;7.63;;;3.97;;
10801;SDS011;5453;50.852;7.102;2023-12-07T13:49:50;9.38;;;4.32;;
10801;SDS011;5453;50.852;7.102;2023-12-07T13:52:23;10.27;;;4.88;;
10801;SDS011;5453;50.852;7.102;2023-12-07T13:54:56;12.68;;;4.60;;
10801;SDS011;5453;50.852;7.102;2023-12-07T13:57:30;11.02;;;4.55;;
10801;SDS011;5453;50.852;7.102;2023-12-07T14:00:03;9.25;;;4.45;;
10801;SDS011;5453;50.852;7.102;2023-12-07T14:02:36;11.10;;;4.68;;
10801;SDS011;5453;50.852;7.102;2023-12-07T14:05:08;10.48;;;4.88;;
10801;SDS011;5453;50.852;7.102;2023-12-07T14:07:41;9.20;;;4.65;;
10801;SDS011;5453;50.852;7.102;2023-12-07T14:10:13;21.13;;;8.30;;
10801;SDS011;5453;50.852;7.102;2023-12-07T14:12:47;11.75;;;5.25;;
10801;SDS011;5453;50.852;7.102;2023-12-07T14:15:20;10.70;;;4.90;;
10801;SDS011;5453;50.852;7.102;2023-12-07T14:17:52;9.82;;;5.03;;
10801;SDS011;5453;50.852;7.102;2023-12-07T14:20:24;9.23;;;5.00;;
10801;SDS011;5453;50.852;7.102;2023-12-07T14:22:58;11.80;;;5.00;;
10801;SDS011;5453;50.852;7.102;2023-12-07T14:25:34;8.73;;;4.57;;
10801;SDS011;5453;50.852;7.102;2023-12-07T14:28:08;10.95;;;4.57;;
10801;SDS011;5453;50.852;7.102;2023-12-07T14:30:40;9.57;;;4.68;;
10801;SDS011;5453;50.852;7.102;2023-12-07T14:33:12;9.65;;;4.75;;
10801;SDS011;5453;50.852;7.102;2023-12-07T14:35:45;10.95;;;4.65;;
10801;SDS011;5453;50.852;7.102;2023-12-07T14:38:18;9.32;;;4.40;;
10801;SDS011;5453;50.852;7.102;2023-12-07T14:40:51;9.52;;;4.93;;
10801;SDS011;5453;50.852;7.102;2023-12-07T14:43:26;11.75;;;5.00;;
10801;SDS011;5453;50.852;7.102;2023-12-07T14:45:58;11.02;;;5.63;;
10801;SDS011;5453;50.852;7.102;2023-12-07T14:48:32;14.85;;;6.60;;
10801;SDS011;5453;50.852;7.102;2023-12-07T14:51:04;13.27;;;5.32;;
10801;SDS011;5453;50.852;7.102;2023-12-07T14:53:37;12.32;;;5.40;;
10801;SDS011;5453;50.852;7.102;2023-12-07T14:56:09;11.95;;;5.15;;
10801;SDS011;5453;50.852;7.102;2023-12-07T14:58:43;10.02;;;4.57;;
10801;SDS011;5453;50.852;7.102;2023-12-07T15:01:15;10.23;;;5.10;;
10801;SDS011;5453;50.852;7.102;2023-12-07T15:03:48;12.93;;;5.10;;
10801;SDS011;5453;50.852;7.102;2023-12-07T15:06:20;11.27;;;5.15;;
10801;SDS011;5453;50.852;7.102;2023-12-07T15:08:54;12.95;;;5.20;;
10801;SDS011;5453;50.852;7.102;2023-12-07T15:11:26;11.85;;;5.00;;
10801;SDS011;5453;50.852;7.102;2023-12-07T15:14:00;12.27;;;5.65;;
10801;SDS011;5453;50.852;7.102;2023-12-07T15:16:33;15.02;;;6.07;;
10801;SDS011;5453;50.852;7.102;2023-12-07T15:19:05;13.75;;;6.18;;
10801;SDS011;5453;50.852;7.102;2023-12-07T15:21:38;12.43;;;6.07;;
10801;SDS011;5453;50.852;7.102;2023-12-07T15:24:10;12.00;;;5.85;;
10801;SDS011;5453;50.852;7.102;2023-12-07T15:26:43;18.20;;;6.40;;
10801;SDS011;5453;50.852;7.102;2023-12-07T15:29:16;12.20;;;5.55;;